sensor_id;sensor_type;location;lat;lon;timestamp;P1;durP1;ratioP1;P2;durP2;ratioP2
52468;SDS011;38381;53.688;10.776;2022-09-09T00:02:27;24.55;;;19.50;;
52468;SDS011;38381;53.688;10.776;2022-09-09T00:07:37;29.60;;;21.38;;
52468;SDS011;38381;53.688;10.776;2022-09-09T00:18:17;20.17;;;18.13;;
52468;SDS011;38381;53.688;10.776;2022-09-09T00:23:33;23.88;;;19.63;;
52468;SDS011;38381;53.688;10.776;2022-09-09T00:29:23;27.48;;;19.08;;
52468;SDS011;38381;53.688;10.776;2022-09-09T00:44:34;21.95;;;16.55;;
52468;SDS011;38381;53.688;10.776;2022-09-09T00:55:00;23.10;;;17.17;;
52468;SDS011;38381;53.688;10.776;2022-09-09T01:00:16;24.30;;;19.27;;
52468;SDS011;38381;53.688;10.776;2022-09-09T01:05:22;21.48;;;19.08;;
52468;SDS011;38381;53.688;10.776;2022-09-09T01:10:39;22.10;;;19.38;;
52468;SDS011;38381;53.688;10.776;2022-09-09T01:15:47;21.25;;;18.60;;
52468;SDS011;38381;53.688;10.776;2022-09-09T01:31:17;21.02;;;16.98;;
52468;SDS011;38381;53.688;10.776;2022-09-09T01:36:26;24.98;;;20.02;;
52468;SDS011;38381;53.688;10.776;2022-09-09T01:41:38;31.65;;;19.73;;
52468;SDS011;38381;53.688;10.776;2022-09-09T01:46:38;35.58;;;20.15;;
52468;SDS011;38381;53.688;10.776;2022-09-09T01:51:38;28.33;;;19.63;;
52468;SDS011;38381;53.688;10.776;2022-09-09T02:02:19;39.25;;;19.88;;
52468;SDS011;38381;53.688;10.776;2022-09-09T02:12:47;25.00;;;18.33;;
52468;SDS011;38381;53.688;10.776;2022-09-09T02:18:09;29.83;;;19.65;;
52468;SDS011;38381;53.688;10.776;2022-09-09T02:23:13;22.45;;;17.35;;
52468;SDS011;38381;53.688;10.776;2022-09-09T02:28:15;35.72;;;18.55;;
52468;SDS011;38381;53.688;10.776;2022-09-09T02:33:16;24.73;;;18.60;;
52468;SDS011;38381;53.688;10.776;2022-09-09T02:38:17;21.02;;;18.70;;
52468;SDS011;38381;53.688;10.776;2022-09-09T02:43:22;21.95;;;16.65;;
52468;SDS011;38381;53.688;10.776;2022-09-09T02:49:27;21.00;;;18.50;;
52468;SDS011;38381;53.688;10.776;2022-09-09T02:53:58;21.13;;;17.33;;
52468;SDS011;38381;53.688;10.776;2022-09-09T02:59:03;24.25;;;18.67;;
52468;SDS011;38381;53.688;10.776;2022-09-09T03:04:04;24.95;;;18.25;;
52468;SDS011;38381;53.688;10.776;2022-09-09T03:09:05;30.13;;;20.10;;
52468;SDS011;38381;53.688;10.776;2022-09-09T03:14:05;25.13;;;19.07;;
52468;SDS011;38381;53.688;10.776;2022-09-09T03:19:06;25.92;;;20.77;;
52468;SDS011;38381;53.688;10.776;2022-09-09T03:24:06;24.23;;;19.27;;
52468;SDS011;38381;53.688;10.776;2022-09-09T03:29:07;25.27;;;18.35;;
52468;SDS011;38381;53.688;10.776;2022-09-09T03:34:07;25.27;;;20.52;;
52468;SDS011;38381;53.688;10.776;2022-09-09T03:39:08;23.63;;;20.67;;
52468;SDS011;38381;53.688;10.776;2022-09-09T03:44:08;22.80;;;17.17;;
52468;SDS011;38381;53.688;10.776;2022-09-09T03:49:08;23.23;;;18.42;;
52468;SDS011;38381;53.688;10.776;2022-09-09T03:54:10;23.30;;;19.73;;
52468;SDS011;38381;53.688;10.776;2022-09-09T03:59:10;20.52;;;17.70;;
52468;SDS011;38381;53.688;10.776;2022-09-09T04:04:10;24.55;;;19.15;;
52468;SDS011;38381;53.688;10.776;2022-09-09T04:09:12;28.60;;;19.10;;
52468;SDS011;38381;53.688;10.776;2022-09-09T04:14:12;19.95;;;17.20;;
52468;SDS011;38381;53.688;10.776;2022-09-09T04:19:12;19.45;;;17.38;;
52468;SDS011;38381;53.688;10.776;2022-09-09T04:24:13;23.15;;;18.00;;
52468;SDS011;38381;53.688;10.776;2022-09-09T04:34:16;23.20;;;17.40;;
52468;SDS011;38381;53.688;10.776;2022-09-09T04:39:16;22.88;;;17.88;;
52468;SDS011;38381;53.688;10.776;2022-09-09T04:44:16;23.47;;;16.90;;
52468;SDS011;38381;53.688;10.776;2022-09-09T04:49:17;19.95;;;16.38;;
52468;SDS011;38381;53.688;10.776;2022-09-09T04:54:17;20.27;;;17.85;;
52468;SDS011;38381;53.688;10.776;2022-09-09T04:59:18;19.65;;;17.05;;
52468;SDS011;38381;53.688;10.776;2022-09-09T05:04:18;21.48;;;17.45;;
52468;SDS011;38381;53.688;10.776;2022-09-09T05:09:19;26.33;;;17.83;;
52468;SDS011;38381;53.688;10.776;2022-09-09T05:14:19;25.95;;;18.60;;
52468;SDS011;38381;53.688;10.776;2022-09-09T05:19:19;20.60;;;17.25;;
52468;SDS011;38381;53.688;10.776;2022-09-09T05:24:20;20.58;;;16.65;;
52468;SDS011;38381;53.688;10.776;2022-09-09T05:29:22;22.35;;;17.63;;
52468;SDS011;38381;53.688;10.776;2022-09-09T05:34:23;21.23;;;18.15;;
52468;SDS011;38381;53.688;10.776;2022-09-09T05:39:23;21.20;;;17.30;;
52468;SDS011;38381;53.688;10.776;2022-09-09T05:44:23;22.52;;;19.20;;
52468;SDS011;38381;53.688;10.776;2022-09-09T05:49:27;22.30;;;17.80;;
52468;SDS011;38381;53.688;10.776;2022-09-09T05:54:27;21.27;;;15.80;;
52468;SDS011;38381;53.688;10.776;2022-09-09T05:59:27;22.30;;;16.48;;
52468;SDS011;38381;53.688;10.776;2022-09-09T06:04:28;21.73;;;16.08;;
52468;SDS011;38381;53.688;10.776;2022-09-09T06:09:28;22.88;;;15.15;;
52468;SDS011;38381;53.688;10.776;2022-09-09T06:14:30;18.87;;;14.77;;
52468;SDS011;38381;53.688;10.776;2022-09-09T06:19:30;18.83;;;15.70;;
52468;SDS011;38381;53.688;10.776;2022-09-09T06:24:30;19.47;;;14.13;;
52468;SDS011;38381;53.688;10.776;2022-09-09T06:29:32;17.02;;;13.65;;
52468;SDS011;38381;53.688;10.776;2022-09-09T06:34:33;19.38;;;14.57;;
52468;SDS011;38381;53.688;10.776;2022-09-09T06:39:33;16.42;;;13.02;;
52468;SDS011;38381;53.688;10.776;2022-09-09T06:44:35;24.67;;;11.63;;
52468;SDS011;38381;53.688;10.776;2022-09-09T06:49:36;11.63;;;10.23;;
52468;SDS011;38381;53.688;10.776;2022-09-09T06:54:36;57.65;;;19.92;;
52468;SDS011;38381;53.688;10.776;2022-09-09T06:59:37;30.25;;;15.50;;
52468;SDS011;38381;53.688;10.776;2022-09-09T07:04:37;15.23;;;9.30;;
52468;SDS011;38381;53.688;10.776;2022-09-09T07:09:38;13.05;;;8.38;;
52468;SDS011;38381;53.688;10.776;2022-09-09T07:14:38;8.32;;;7.35;;
52468;SDS011;38381;53.688;10.776;2022-09-09T07:19:38;12.45;;;7.72;;
52468;SDS011;38381;53.688;10.776;2022-09-09T07:24:39;7.70;;;6.88;;
52468;SDS011;38381;53.688;10.776;2022-09-09T07:29:39;8.38;;;6.10;;
52468;SDS011;38381;53.688;10.776;2022-09-09T07:34:39;7.95;;;5.60;;
52468;SDS011;38381;53.688;10.776;2022-09-09T07:39:39;8.63;;;5.85;;
52468;SDS011;38381;53.688;10.776;2022-09-09T07:44:40;9.45;;;6.72;;
52468;SDS011;38381;53.688;10.776;2022-09-09T07:49:40;6.57;;;5.88;;
52468;SDS011;38381;53.688;10.776;2022-09-09T07:54:41;7.30;;;6.63;;
52468;SDS011;38381;53.688;10.776;2022-09-09T07:59:41;6.82;;;5.70;;
52468;SDS011;38381;53.688;10.776;2022-09-09T08:04:42;5.88;;;5.28;;
52468;SDS011;38381;53.688;10.776;2022-09-09T08:09:42;6.47;;;4.90;;
52468;SDS011;38381;53.688;10.776;2022-09-09T08:14:43;5.40;;;4.63;;
52468;SDS011;38381;53.688;10.776;2022-09-09T08:19:44;5.00;;;4.50;;
52468;SDS011;38381;53.688;10.776;2022-09-09T08:24:44;5.07;;;4.47;;
52468;SDS011;38381;53.688;10.776;2022-09-09T08:29:44;4.78;;;4.20;;
52468;SDS011;38381;53.688;10.776;2022-09-09T08:34:44;6.07;;;4.00;;
52468;SDS011;38381;53.688;10.776;2022-09-09T08:39:45;4.97;;;4.35;;
52468;SDS011;38381;53.688;10.776;2022-09-09T08:55:22;4.72;;;3.20;;
52468;SDS011;38381;53.688;10.776;2022-09-09T09:00:35;5.15;;;3.45;;
52468;SDS011;38381;53.688;10.776;2022-09-09T09:10:56;4.53;;;3.55;;
52468;SDS011;38381;53.688;10.776;2022-09-09T09:16:02;6.05;;;3.58;;
52468;SDS011;38381;53.688;10.776;2022-09-09T09:21:18;4.68;;;3.45;;
52468;SDS011;38381;53.688;10.776;2022-09-09T09:31:32;4.22;;;3.53;;
52468;SDS011;38381;53.688;10.776;2022-09-09T09:36:39;5.38;;;3.10;;
52468;SDS011;38381;53.688;10.776;2022-09-09T09:41:44;4.07;;;3.23;;
52468;SDS011;38381;53.688;10.776;2022-09-09T09:46:45;4.72;;;3.70;;
52468;SDS011;38381;53.688;10.776;2022-09-09T09:51:45;3.63;;;3.13;;
52468;SDS011;38381;53.688;10.776;2022-09-09T09:56:47;3.28;;;2.95;;
52468;SDS011;38381;53.688;10.776;2022-09-09T10:01:47;3.88;;;3.08;;
52468;SDS011;38381;53.688;10.776;2022-09-09T10:06:47;10.48;;;3.30;;
52468;SDS011;38381;53.688;10.776;2022-09-09T10:17:39;4.25;;;2.63;;
52468;SDS011;38381;53.688;10.776;2022-09-09T10:22:44;6.07;;;2.53;;
52468;SDS011;38381;53.688;10.776;2022-09-09T10:38:42;4.28;;;1.95;;
52468;SDS011;38381;53.688;10.776;2022-09-09T10:59:36;5.07;;;1.48;;
52468;SDS011;38381;53.688;10.776;2022-09-09T11:04:45;2.95;;;1.80;;
52468;SDS011;38381;53.688;10.776;2022-09-09T11:09:55;3.33;;;1.58;;
52468;SDS011;38381;53.688;10.776;2022-09-09T11:15:04;2.65;;;1.55;;
52468;SDS011;38381;53.688;10.776;2022-09-09T11:20:14;3.83;;;2.05;;
52468;SDS011;38381;53.688;10.776;2022-09-09T11:35:26;2.30;;;1.50;;
52468;SDS011;38381;53.688;10.776;2022-09-09T11:45:34;3.75;;;1.50;;
52468;SDS011;38381;53.688;10.776;2022-09-09T11:50:36;3.50;;;1.90;;
52468;SDS011;38381;53.688;10.776;2022-09-09T11:55:37;3.73;;;2.00;;
52468;SDS011;38381;53.688;10.776;2022-09-09T12:05:44;4.30;;;1.60;;
52468;SDS011;38381;53.688;10.776;2022-09-09T12:10:53;2.40;;;1.70;;
52468;SDS011;38381;53.688;10.776;2022-09-09T12:15:59;2.63;;;1.10;;
52468;SDS011;38381;53.688;10.776;2022-09-09T12:26:52;1.65;;;1.33;;
52468;SDS011;38381;53.688;10.776;2022-09-09T12:32:15;1.90;;;1.33;;
52468;SDS011;38381;53.688;10.776;2022-09-09T12:37:35;7.22;;;1.23;;
52468;SDS011;38381;53.688;10.776;2022-09-09T12:42:39;3.67;;;1.75;;
52468;SDS011;38381;53.688;10.776;2022-09-09T12:52:43;2.08;;;1.42;;
52468;SDS011;38381;53.688;10.776;2022-09-09T12:57:45;1.75;;;1.38;;
52468;SDS011;38381;53.688;10.776;2022-09-09T13:02:50;1.45;;;1.20;;
52468;SDS011;38381;53.688;10.776;2022-09-09T13:08:13;2.40;;;1.50;;
52468;SDS011;38381;53.688;10.776;2022-09-09T13:13:15;2.10;;;1.20;;
52468;SDS011;38381;53.688;10.776;2022-09-09T13:18:23;2.80;;;1.92;;
52468;SDS011;38381;53.688;10.776;2022-09-09T13:23:48;1.45;;;1.20;;
52468;SDS011;38381;53.688;10.776;2022-09-09T13:28:50;2.42;;;1.83;;
52468;SDS011;38381;53.688;10.776;2022-09-09T13:33:52;3.45;;;2.20;;
52468;SDS011;38381;53.688;10.776;2022-09-09T13:38:55;4.00;;;2.33;;
52468;SDS011;38381;53.688;10.776;2022-09-09T13:43:57;4.53;;;2.08;;
52468;SDS011;38381;53.688;10.776;2022-09-09T13:54:19;2.33;;;1.98;;
52468;SDS011;38381;53.688;10.776;2022-09-09T13:59:20;2.08;;;1.80;;
52468;SDS011;38381;53.688;10.776;2022-09-09T14:04:21;4.22;;;2.55;;
52468;SDS011;38381;53.688;10.776;2022-09-09T14:09:21;4.47;;;2.70;;
52468;SDS011;38381;53.688;10.776;2022-09-09T14:14:21;2.80;;;2.10;;
52468;SDS011;38381;53.688;10.776;2022-09-09T14:19:22;2.40;;;2.03;;
52468;SDS011;38381;53.688;10.776;2022-09-09T14:24:22;3.87;;;2.27;;
52468;SDS011;38381;53.688;10.776;2022-09-09T14:29:22;3.78;;;2.75;;
52468;SDS011;38381;53.688;10.776;2022-09-09T14:39:25;2.35;;;1.60;;
52468;SDS011;38381;53.688;10.776;2022-09-09T14:44:26;3.92;;;2.15;;
52468;SDS011;38381;53.688;10.776;2022-09-09T14:49:26;4.47;;;2.45;;
52468;SDS011;38381;53.688;10.776;2022-09-09T14:54:26;9.52;;;2.10;;
52468;SDS011;38381;53.688;10.776;2022-09-09T14:59:28;4.23;;;2.30;;
52468;SDS011;38381;53.688;10.776;2022-09-09T15:04:28;2.40;;;2.00;;
52468;SDS011;38381;53.688;10.776;2022-09-09T15:09:28;4.15;;;2.80;;
52468;SDS011;38381;53.688;10.776;2022-09-09T15:14:29;3.92;;;2.40;;
52468;SDS011;38381;53.688;10.776;2022-09-09T15:19:30;1.93;;;1.70;;
52468;SDS011;38381;53.688;10.776;2022-09-09T15:24:32;2.63;;;1.90;;
52468;SDS011;38381;53.688;10.776;2022-09-09T15:29:33;4.50;;;2.37;;
52468;SDS011;38381;53.688;10.776;2022-09-09T15:34:33;3.05;;;2.45;;
52468;SDS011;38381;53.688;10.776;2022-09-09T15:39:33;2.90;;;2.40;;
52468;SDS011;38381;53.688;10.776;2022-09-09T15:44:40;2.88;;;2.20;;
52468;SDS011;38381;53.688;10.776;2022-09-09T15:49:42;2.70;;;2.22;;
52468;SDS011;38381;53.688;10.776;2022-09-09T15:54:42;6.77;;;2.57;;
52468;SDS011;38381;53.688;10.776;2022-09-09T15:59:43;6.32;;;5.43;;
52468;SDS011;38381;53.688;10.776;2022-09-09T16:04:45;7.35;;;6.68;;
52468;SDS011;38381;53.688;10.776;2022-09-09T16:09:45;4.63;;;3.75;;
52468;SDS011;38381;53.688;10.776;2022-09-09T16:14:45;8.43;;;7.72;;
52468;SDS011;38381;53.688;10.776;2022-09-09T16:19:46;7.90;;;6.60;;
52468;SDS011;38381;53.688;10.776;2022-09-09T16:24:46;6.65;;;6.00;;
52468;SDS011;38381;53.688;10.776;2022-09-09T16:29:47;3.40;;;2.60;;
52468;SDS011;38381;53.688;10.776;2022-09-09T16:34:47;12.02;;;3.78;;
52468;SDS011;38381;53.688;10.776;2022-09-09T16:39:47;4.28;;;2.88;;
52468;SDS011;38381;53.688;10.776;2022-09-09T16:44:47;2.92;;;2.50;;
52468;SDS011;38381;53.688;10.776;2022-09-09T16:49:50;2.60;;;2.30;;
52468;SDS011;38381;53.688;10.776;2022-09-09T16:54:50;5.10;;;2.17;;
52468;SDS011;38381;53.688;10.776;2022-09-09T16:59:50;3.10;;;2.85;;
52468;SDS011;38381;53.688;10.776;2022-09-09T17:04:53;3.47;;;2.17;;
52468;SDS011;38381;53.688;10.776;2022-09-09T17:09:54;2.80;;;1.80;;
52468;SDS011;38381;53.688;10.776;2022-09-09T17:14:54;5.85;;;2.03;;
52468;SDS011;38381;53.688;10.776;2022-09-09T17:19:55;3.22;;;2.05;;
52468;SDS011;38381;53.688;10.776;2022-09-09T17:24:56;3.05;;;2.30;;
52468;SDS011;38381;53.688;10.776;2022-09-09T17:29:56;3.30;;;2.30;;
52468;SDS011;38381;53.688;10.776;2022-09-09T17:34:57;2.30;;;1.92;;
52468;SDS011;38381;53.688;10.776;2022-09-09T17:39:57;4.28;;;2.33;;
52468;SDS011;38381;53.688;10.776;2022-09-09T17:44:58;4.40;;;2.63;;
52468;SDS011;38381;53.688;10.776;2022-09-09T17:49:58;2.75;;;2.22;;
52468;SDS011;38381;53.688;10.776;2022-09-09T17:54:58;2.40;;;2.03;;
52468;SDS011;38381;53.688;10.776;2022-09-09T17:59:59;3.38;;;2.10;;
52468;SDS011;38381;53.688;10.776;2022-09-09T18:05:00;3.80;;;2.33;;
52468;SDS011;38381;53.688;10.776;2022-09-09T18:10:02;5.00;;;2.40;;
52468;SDS011;38381;53.688;10.776;2022-09-09T18:15:02;4.95;;;3.00;;
52468;SDS011;38381;53.688;10.776;2022-09-09T18:20:04;3.53;;;2.60;;
52468;SDS011;38381;53.688;10.776;2022-09-09T18:25:05;3.88;;;2.17;;
52468;SDS011;38381;53.688;10.776;2022-09-09T18:30:05;6.00;;;2.73;;
52468;SDS011;38381;53.688;10.776;2022-09-09T18:35:06;2.42;;;2.05;;
52468;SDS011;38381;53.688;10.776;2022-09-09T18:40:07;2.72;;;1.95;;
52468;SDS011;38381;53.688;10.776;2022-09-09T18:45:07;2.20;;;1.70;;
52468;SDS011;38381;53.688;10.776;2022-09-09T18:50:07;2.75;;;1.92;;
52468;SDS011;38381;53.688;10.776;2022-09-09T18:55:08;5.85;;;2.30;;
52468;SDS011;38381;53.688;10.776;2022-09-09T19:00:09;3.72;;;2.03;;
52468;SDS011;38381;53.688;10.776;2022-09-09T19:05:11;2.88;;;2.17;;
52468;SDS011;38381;53.688;10.776;2022-09-09T19:10:11;2.40;;;2.10;;
52468;SDS011;38381;53.688;10.776;2022-09-09T19:15:11;2.25;;;1.95;;
52468;SDS011;38381;53.688;10.776;2022-09-09T19:20:11;2.35;;;2.00;;
52468;SDS011;38381;53.688;10.776;2022-09-09T19:25:12;3.28;;;2.10;;
52468;SDS011;38381;53.688;10.776;2022-09-09T19:30:12;4.57;;;2.20;;
52468;SDS011;38381;53.688;10.776;2022-09-09T19:35:12;3.00;;;1.60;;
52468;SDS011;38381;53.688;10.776;2022-09-09T19:40:13;2.38;;;2.00;;
52468;SDS011;38381;53.688;10.776;2022-09-09T19:45:13;3.97;;;2.23;;
52468;SDS011;38381;53.688;10.776;2022-09-09T19:50:13;3.15;;;2.63;;
52468;SDS011;38381;53.688;10.776;2022-09-09T19:55:14;2.57;;;2.20;;
52468;SDS011;38381;53.688;10.776;2022-09-09T20:00:14;4.07;;;3.33;;
52468;SDS011;38381;53.688;10.776;2022-09-09T20:05:18;6.13;;;3.15;;
52468;SDS011;38381;53.688;10.776;2022-09-09T20:10:18;2.88;;;2.53;;
52468;SDS011;38381;53.688;10.776;2022-09-09T20:15:19;4.13;;;2.47;;
52468;SDS011;38381;53.688;10.776;2022-09-09T20:20:19;3.33;;;2.50;;
52468;SDS011;38381;53.688;10.776;2022-09-09T20:25:20;4.57;;;2.33;;
52468;SDS011;38381;53.688;10.776;2022-09-09T20:30:23;2.97;;;2.67;;
52468;SDS011;38381;53.688;10.776;2022-09-09T20:35:23;2.35;;;2.15;;
52468;SDS011;38381;53.688;10.776;2022-09-09T20:40:24;2.80;;;2.60;;
52468;SDS011;38381;53.688;10.776;2022-09-09T20:45:24;4.93;;;2.45;;
52468;SDS011;38381;53.688;10.776;2022-09-09T20:50:24;6.10;;;2.50;;
52468;SDS011;38381;53.688;10.776;2022-09-09T20:55:24;2.75;;;2.22;;
52468;SDS011;38381;53.688;10.776;2022-09-09T21:00:25;2.15;;;1.75;;
52468;SDS011;38381;53.688;10.776;2022-09-09T21:05:25;2.60;;;2.40;;
52468;SDS011;38381;53.688;10.776;2022-09-09T21:10:26;2.45;;;2.05;;
52468;SDS011;38381;53.688;10.776;2022-09-09T21:15:27;2.42;;;2.08;;
52468;SDS011;38381;53.688;10.776;2022-09-09T21:20:28;2.30;;;1.80;;
52468;SDS011;38381;53.688;10.776;2022-09-09T21:25:28;2.55;;;2.13;;
52468;SDS011;38381;53.688;10.776;2022-09-09T21:30:29;2.55;;;2.13;;
52468;SDS011;38381;53.688;10.776;2022-09-09T21:35:29;3.83;;;2.38;;
52468;SDS011;38381;53.688;10.776;2022-09-09T21:40:37;2.28;;;1.88;;
52468;SDS011;38381;53.688;10.776;2022-09-09T21:45:38;3.50;;;2.15;;
52468;SDS011;38381;53.688;10.776;2022-09-09T21:50:41;2.80;;;2.03;;
52468;SDS011;38381;53.688;10.776;2022-09-09T22:00:46;3.53;;;2.00;;
52468;SDS011;38381;53.688;10.776;2022-09-09T22:05:46;4.38;;;2.50;;
52468;SDS011;38381;53.688;10.776;2022-09-09T22:10:47;3.78;;;2.63;;
52468;SDS011;38381;53.688;10.776;2022-09-09T22:15:47;5.43;;;4.53;;
52468;SDS011;38381;53.688;10.776;2022-09-09T22:20:47;6.57;;;4.07;;
52468;SDS011;38381;53.688;10.776;2022-09-09T22:25:48;3.90;;;3.50;;
52468;SDS011;38381;53.688;10.776;2022-09-09T22:30:49;4.90;;;3.40;;
52468;SDS011;38381;53.688;10.776;2022-09-09T22:35:49;3.47;;;3.17;;
52468;SDS011;38381;53.688;10.776;2022-09-09T22:40:49;5.00;;;3.40;;
52468;SDS011;38381;53.688;10.776;2022-09-09T22:45:50;3.85;;;3.15;;
52468;SDS011;38381;53.688;10.776;2022-09-09T22:50:51;5.60;;;3.33;;
52468;SDS011;38381;53.688;10.776;2022-09-09T22:55:56;4.10;;;3.70;;
52468;SDS011;38381;53.688;10.776;2022-09-09T23:01:06;4.93;;;3.88;;
52468;SDS011;38381;53.688;10.776;2022-09-09T23:06:17;5.47;;;4.45;;
52468;SDS011;38381;53.688;10.776;2022-09-09T23:11:21;9.23;;;7.03;;
52468;SDS011;38381;53.688;10.776;2022-09-09T23:16:24;9.07;;;7.73;;
52468;SDS011;38381;53.688;10.776;2022-09-09T23:21:28;10.00;;;7.32;;
52468;SDS011;38381;53.688;10.776;2022-09-09T23:26:29;9.07;;;7.80;;
52468;SDS011;38381;53.688;10.776;2022-09-09T23:31:31;9.63;;;7.70;;
52468;SDS011;38381;53.688;10.776;2022-09-09T23:36:32;8.55;;;7.65;;
52468;SDS011;38381;53.688;10.776;2022-09-09T23:41:34;9.90;;;7.70;;
52468;SDS011;38381;53.688;10.776;2022-09-09T23:46:35;8.55;;;7.72;;
52468;SDS011;38381;53.688;10.776;2022-09-09T23:51:36;8.40;;;6.80;;
52468;SDS011;38381;53.688;10.776;2022-09-09T23:56:38;8.02;;;7.32;;
